Time;durP1;ratioP1;P1;durP2;ratioP2;P2;SDS_P1;SDS_P2;PMS_P1;PMS_P2;Temp;Humidity;BMP_temperature;BMP_pressure;BME280_temperature;BME280_humidity;BME280_pressure;Samples;Min_cycle;Max_cycle;Signal;HPM_P1;HPM_P2
2021/12/09 00:01:01;;;;;;;85.53;31.52;;;;;;;-0.37;100.00;100072.88;5108663;28;20047;-80
2021/12/09 00:03:30;;;;;;;85.47;31.85;;;;;;;-0.47;100.00;100056.97;5108618;28;20043;-81
2021/12/09 00:05:56;;;;;;;80.82;29.70;;;;;;;-0.40;100.00;100067.84;5091094;28;20031;-81
2021/12/09 00:08:25;;;;;;;77.63;31.70;;;;;;;-0.40;100.00;100062.59;5108544;28;20067;-81
2021/12/09 00:10:50;;;;;;;73.88;30.45;;;;;;;-0.43;100.00;100068.06;5107950;28;20023;-81
2021/12/09 00:13:16;;;;;;;86.63;30.40;;;;;;;-0.43;100.00;100074.13;5109612;28;20023;-80
2021/12/09 00:15:41;;;;;;;88.50;31.95;;;;;;;-0.48;100.00;100065.75;5109381;27;20509;-80
2021/12/09 00:18:07;;;;;;;75.80;31.05;;;;;;;-0.45;100.00;100081.28;5109471;28;20035;-81
2021/12/09 00:20:32;;;;;;;87.43;31.88;;;;;;;-0.44;100.00;100087.38;5091346;28;20040;-82
2021/12/09 00:22:58;;;;;;;84.47;32.38;;;;;;;-0.41;100.00;100087.16;5108445;28;20039;-81
2021/12/09 00:25:23;;;;;;;93.05;34.42;;;;;;;-0.56;100.00;100062.88;5108151;28;20395;-81
2021/12/09 00:27:51;;;;;;;93.35;34.38;;;;;;;-0.43;100.00;100076.75;5108324;28;20077;-80
2021/12/09 00:30:17;;;;;;;91.18;34.72;;;;;;;-0.37;100.00;100082.53;5108189;28;20023;-81
2021/12/09 00:32:43;;;;;;;90.97;33.10;;;;;;;-0.45;100.00;100069.94;5108356;28;20035;-81
2021/12/09 00:35:10;;;;;;;83.45;31.08;;;;;;;-0.52;100.00;100055.59;5107985;28;20035;-80
2021/12/09 00:40:01;;;;;;;94.03;34.83;;;;;;;-0.52;100.00;100068.72;5108919;28;20128;-81
2021/12/09 00:42:27;;;;;;;81.75;33.30;;;;;;;-0.50;100.00;100078.16;5091294;28;20381;-80
2021/12/09 00:44:53;;;;;;;92.65;34.97;;;;;;;-0.50;100.00;100083.38;5107974;28;20103;-80
2021/12/09 00:47:20;;;;;;;98.18;33.13;;;;;;;-0.48;100.00;100091.16;5109138;28;20070;-81
2021/12/09 00:49:47;;;;;;;91.55;32.92;;;;;;;-0.52;100.00;100085.28;5108014;28;20039;-81
2021/12/09 00:52:13;;;;;;;;;;;;;;;-0.48;100.00;100091.16;5108643;28;20080;-80
2021/12/09 00:54:41;;;;;;;88.50;32.40;;;;;;;-0.54;100.00;100074.09;5108554;28;20298;-81
2021/12/09 00:57:07;;;;;;;89.82;30.35;;;;;;;-0.47;100.00;100088.44;5108972;28;20048;-81
2021/12/09 00:59:32;;;;;;;94.72;32.42;;;;;;;-0.59;100.00;100057.81;5108756;28;20130;-81
2021/12/09 01:01:58;;;;;;;96.00;35.22;;;;;;;-0.58;100.00;100070.00;5090898;28;20023;-80
2021/12/09 01:04:23;;;;;;;87.40;34.63;;;;;;;-0.55;100.00;100074.19;5107595;28;20027;-81
2021/12/09 01:06:49;;;;;;;91.35;33.88;;;;;;;-0.55;100.00;100074.19;5108511;28;20141;-80
2021/12/09 01:09:15;;;;;;;;;;;;;;;-0.44;100.00;100087.38;5108604;28;20046;-80
2021/12/09 01:11:41;;;;;;;86.35;30.58;;;;;;;-0.52;100.00;100073.97;5108965;28;19916;-81
2021/12/09 01:14:07;;;;;;;95.80;30.15;;;;;;;-0.45;100.00;100080.44;5107487;28;20047;-80
2021/12/09 01:16:32;;;;;;;94.13;32.63;;;;;;;-0.47;100.00;100061.34;5108588;28;20036;-80
2021/12/09 01:18:58;;;;;;;89.78;32.22;;;;;;;-0.48;100.00;100060.53;5107431;28;20070;-81
2021/12/09 01:21:23;;;;;;;92.70;34.05;;;;;;;-0.46;100.00;100055.19;5107285;28;20457;-80
2021/12/09 01:23:49;;;;;;;89.25;32.33;;;;;;;-0.40;100.00;100070.47;5112084;28;20035;-80
2021/12/09 01:26:14;;;;;;;98.00;35.83;;;;;;;-0.51;100.00;100047.63;5095214;28;20032;-80
2021/12/09 01:28:46;;;;;;;92.07;32.90;;;;;;;-0.57;100.00;100047.22;5111801;28;20028;-80
2021/12/09 01:31:19;;;;;;;89.55;31.05;;;;;;;-0.60;100.00;100047.44;5112836;28;20072;-81
2021/12/09 01:33:46;;;;;;;86.97;31.83;;;;;;;-0.56;100.00;100062.00;5113495;28;20032;-80
2021/12/09 01:36:12;;;;;;;96.38;34.55;;;;;;;-0.57;100.00;100055.94;5114919;28;20032;-80
2021/12/09 01:38:37;;;;;;;93.47;35.50;;;;;;;-0.58;100.00;100059.50;5112648;28;20452;-81
2021/12/09 01:41:03;;;;;;;89.20;31.25;;;;;;;-0.49;100.00;100060.66;5111402;28;20050;-81
2021/12/09 01:43:29;;;;;;;93.88;36.17;;;;;;;-0.48;100.00;100052.66;5094282;28;20024;-81
2021/12/09 01:46:11;;;;;;;91.63;32.85;;;;;;;-0.67;100.00;100033.94;5111453;28;20101;-81
2021/12/09 01:48:38;;;;;;;97.30;31.65;;;;;;;-0.53;100.00;100057.41;5094314;28;20385;-79
2021/12/09 01:51:04;;;;;;;90.15;33.97;;;;;;;-0.70;100.00;100035.00;5094332;28;20027;-80
2021/12/09 01:53:30;;;;;;;;;;;;;;;-0.48;100.00;100060.53;5112380;28;20414;-81
2021/12/09 01:56:00;;;;;;;87.78;32.00;;;;;;;-0.67;100.00;100023.44;5112239;28;19919;-81
2021/12/09 01:58:26;;;;;;;91.57;33.05;;;;;;;-0.69;100.00;100036.66;5111360;28;20523;-81
2021/12/09 02:00:51;;;;;;;96.55;32.30;;;;;;;-0.72;100.00;100029.00;5112356;28;20046;-80
2021/12/09 02:03:17;;;;;;;88.57;36.35;;;;;;;-0.75;100.00;100031.00;5111983;27;20160;-81
2021/12/09 02:05:43;;;;;;;100.63;33.92;;;;;;;-0.85;100.00;100026.41;5111595;28;20040;-81
2021/12/09 02:08:14;;;;;;;95.82;31.10;;;;;;;-0.72;100.00;100046.53;5093949;28;20047;-81
2021/12/09 02:10:41;;;;;;;98.45;34.13;;;;;;;-0.81;100.00;100045.38;5110485;28;20048;-80
2021/12/09 02:13:07;;;;;;;97.95;35.22;;;;;;;-0.77;100.00;100054.72;5111910;27;20044;-80
2021/12/09 02:15:33;;;;;;;92.32;33.60;;;;;;;-0.73;100.00;100057.94;5111575;28;20035;-81
2021/12/09 02:17:59;;;;;;;97.97;34.13;;;;;;;-0.77;100.00;100053.84;5110787;28;20101;-80
2021/12/09 02:20:29;;;;;;;87.45;32.92;;;;;;;-0.69;100.00;100077.75;5110780;28;20023;-80
2021/12/09 02:22:56;;;;;;;92.80;35.22;;;;;;;-0.75;100.00;100067.69;5111586;28;20035;-81
2021/12/09 02:25:22;;;;;;;89.95;34.67;;;;;;;-0.74;100.00;100064.16;5093655;28;20108;-81
2021/12/09 02:27:49;;;;;;;92.93;34.60;;;;;;;-0.71;100.00;100074.41;5093659;28;20039;-80
2021/12/09 02:30:15;;;;;;;99.22;33.53;;;;;;;-0.73;100.00;100063.19;5111509;28;20032;-80
2021/12/09 02:32:42;;;;;;;91.60;34.05;;;;;;;-0.75;100.00;100057.22;5110578;28;20027;-80
2021/12/09 02:35:08;;;;;;;95.13;36.97;;;;;;;-0.83;100.00;100052.50;5109490;28;20054;-81
2021/12/09 02:37:35;;;;;;;88.70;31.38;;;;;;;-0.85;100.00;100047.38;5110350;28;20032;-80
2021/12/09 02:40:01;;;;;;;94.97;34.50;;;;;;;-0.78;100.00;100054.81;5110413;28;20024;-80
2021/12/09 02:42:27;;;;;;;94.07;34.92;;;;;;;-0.82;100.00;100050.72;5110604;28;20059;-80
2021/12/09 02:44:55;;;;;;;92.53;33.83;;;;;;;-0.73;100.00;100058.78;5110957;28;20360;-81
2021/12/09 02:47:21;;;;;;;85.45;32.22;;;;;;;-0.75;100.00;100051.97;5111147;28;20184;-80
2021/12/09 02:49:47;;;;;;;82.38;33.33;;;;;;;-0.82;100.00;100048.97;5110299;28;20035;-80
2021/12/09 02:52:12;;;;;;;96.90;32.72;;;;;;;-0.78;100.00;100052.19;5110062;28;20031;-81
2021/12/09 02:54:38;;;;;;;96.35;33.05;;;;;;;-0.77;100.00;100053.84;5110693;28;20031;-80
2021/12/09 02:57:06;;;;;;;86.95;35.10;;;;;;;-0.75;100.00;100054.59;5110091;28;20074;-80
2021/12/09 02:59:37;;;;;;;93.45;34.78;;;;;;;-0.86;100.00;100050.94;5109576;28;20071;-80
2021/12/09 03:02:05;;;;;;;96.22;33.63;;;;;;;-0.80;100.00;100059.31;5109117;28;20039;-81
2021/12/09 03:04:41;;;;;;;88.28;33.28;;;;;;;-0.82;100.00;100055.97;5109578;28;20106;-80
2021/12/09 03:07:29;;;;;;;88.03;31.13;;;;;;;-0.81;100.00;100062.91;5092906;28;20035;-81
2021/12/09 03:10:00;;;;;;;94.18;34.92;;;;;;;-0.77;100.00;100069.56;5109406;28;20445;-80
2021/12/09 03:12:31;;;;;;;85.70;30.95;;;;;;;-0.84;100.00;100061.34;5092756;28;20134;-81
2021/12/09 03:14:57;;;;;;;95.50;34.30;;;;;;;-0.86;100.00;100069.28;5110285;28;20032;-81
2021/12/09 03:17:23;;;;;;;94.57;38.88;;;;;;;-0.87;100.00;100070.25;5110570;28;20039;-81
2021/12/09 03:19:49;;;;;;;;;;;;;;;-0.83;100.00;100081.34;5110798;28;20074;-80
2021/12/09 03:22:15;;;;;;;86.15;35.10;;;;;;;-0.83;100.00;100068.22;5110628;28;19955;-80
2021/12/09 03:24:40;;;;;;;85.75;32.90;;;;;;;-0.94;100.00;100055.84;5092214;28;20493;-81
2021/12/09 03:27:07;;;;;;;93.93;31.63;;;;;;;-0.85;100.00;100083.22;5110761;28;20447;-80
2021/12/09 03:29:33;;;;;;;92.50;32.50;;;;;;;-0.80;100.00;100085.53;5109282;28;20382;-80
2021/12/09 03:32:03;;;;;;;91.15;34.72;;;;;;;-0.72;100.00;100091.94;5092313;28;20074;-80
2021/12/09 03:34:30;;;;;;;86.57;30.45;;;;;;;-0.71;100.00;100090.13;5108951;28;20023;-81
2021/12/09 03:36:59;;;;;;;86.43;31.00;;;;;;;-0.87;100.00;100059.75;5092305;28;20039;-80
2021/12/09 03:39:29;;;;;;;87.78;33.00;;;;;;;-0.86;100.00;100077.16;5110027;28;20031;-81
2021/12/09 03:41:56;;;;;;;89.38;33.78;;;;;;;-0.77;100.00;100082.69;5109975;28;20038;-80
2021/12/09 03:44:22;;;;;;;89.43;33.42;;;;;;;-0.81;100.00;100070.75;5091904;28;20122;-80
2021/12/09 03:46:50;;;;;;;85.00;30.20;;;;;;;-0.73;100.00;100087.59;5109036;28;20035;-81
2021/12/09 03:49:16;;;;;;;90.35;33.70;;;;;;;-1.00;100.00;100048.44;5092014;28;20028;-80
2021/12/09 03:51:42;;;;;;;94.32;34.00;;;;;;;-0.86;100.00;100081.56;5110285;28;20035;-80
2021/12/09 03:54:09;;;;;;;93.80;32.90;;;;;;;-0.85;100.00;100080.59;5109714;28;20378;-80
2021/12/09 03:56:37;;;;;;;93.68;36.10;;;;;;;-0.93;100.00;100075.91;5108656;28;20388;-80
2021/12/09 03:59:04;;;;;;;87.32;31.77;;;;;;;-0.94;100.00;100068.97;5108553;28;20035;-80
2021/12/09 04:01:29;;;;;;;94.78;33.40;;;;;;;-0.93;100.00;100073.28;5108715;28;20031;-81
2021/12/09 04:03:55;;;;;;;86.95;32.83;;;;;;;-0.92;100.00;100085.41;5109353;28;20101;-80
2021/12/09 04:06:21;;;;;;;90.80;32.35;;;;;;;-0.96;100.00;100086.59;5109777;28;20031;-80
2021/12/09 04:08:48;;;;;;;88.43;33.83;;;;;;;-1.02;100.00;100071.28;5109620;28;20043;-80
2021/12/09 04:11:15;;;;;;;90.05;31.63;;;;;;;-0.94;100.00;100083.84;5109617;28;20096;-80
2021/12/09 04:13:40;;;;;;;87.88;32.90;;;;;;;-0.96;100.00;100088.34;5109221;28;20042;-81
2021/12/09 04:16:07;;;;;;;95.43;34.72;;;;;;;-0.91;100.00;100089.75;5107856;28;20360;-81
2021/12/09 04:18:39;;;;;;;105.13;34.58;;;;;;;-1.00;100.00;100079.06;5107698;28;20092;-80
2021/12/09 04:21:04;;;;;;;91.80;35.60;;;;;;;-0.88;100.00;100107.03;5107775;28;20035;-80
2021/12/09 04:23:30;;;;;;;92.22;32.10;;;;;;;-0.87;100.00;100111.31;5106689;28;20060;-81
2021/12/09 04:25:57;;;;;;;96.53;32.22;;;;;;;-0.93;100.00;100099.47;5108718;28;20047;-80
2021/12/09 04:28:22;;;;;;;108.90;37.13;;;;;;;-0.87;100.00;100109.56;5107715;28;20046;-81
2021/12/09 04:30:48;;;;;;;92.37;33.20;;;;;;;-0.93;100.00;100112.59;5107733;28;20027;-80
2021/12/09 04:33:13;;;;;;;86.93;31.77;;;;;;;-0.89;100.00;100121.06;5106807;28;20281;-81
2021/12/09 04:35:39;;;;;;;97.20;35.80;;;;;;;-0.78;100.00;100133.44;5107256;28;20069;-80
2021/12/09 04:38:04;;;;;;;91.55;31.90;;;;;;;-0.90;100.00;100107.13;5108690;28;20027;-81
2021/12/09 04:40:30;;;;;;;106.38;35.78;;;;;;;-0.99;100.00;100105.13;5107080;28;20461;-82
2021/12/09 04:42:55;;;;;;;97.97;37.30;;;;;;;-0.89;100.00;100137.66;5107830;28;20023;-82
2021/12/09 04:45:21;;;;;;;95.88;33.42;;;;;;;-1.02;100.00;100115.81;5108006;28;20055;-81
2021/12/09 04:47:47;;;;;;;99.13;35.72;;;;;;;-1.00;100.00;100131.47;5108069;28;20411;-81
2021/12/09 04:50:13;;;;;;;94.90;35.00;;;;;;;-1.00;100.00;100132.28;5108287;28;20047;-80
2021/12/09 04:52:39;;;;;;;94.35;34.75;;;;;;;-0.92;100.00;100148.31;5108286;28;20039;-81
2021/12/09 04:55:07;;;;;;;103.03;38.30;;;;;;;-0.92;100.00;100135.22;5107452;28;20441;-80
2021/12/09 04:57:33;;;;;;;96.43;33.10;;;;;;;-0.83;100.00;100138.16;5107594;28;20031;-80
2021/12/09 05:00:00;;;;;;;;;;;;;;;-0.97;100.00;100126.84;5108490;28;20398;-81
2021/12/09 05:02:34;;;;;;;89.25;31.73;;;;;;;-1.04;100.00;100120.31;5090647;28;19965;-81
2021/12/09 05:05:00;;;;;;;80.03;29.08;;;;;;;-1.11;100.00;100116.44;5107374;28;20047;-80
2021/12/09 05:07:25;;;;;;;107.07;36.67;;;;;;;-1.13;100.00;100132.25;5107785;28;20488;-80
2021/12/09 05:09:52;;;;;;;94.00;34.45;;;;;;;-1.07;100.00;100125.78;5108030;28;20634;-80
2021/12/09 05:12:21;;;;;;;90.60;34.15;;;;;;;-0.90;100.00;100142.97;5091134;28;20495;-80
2021/12/09 05:14:47;;;;;;;84.45;31.85;;;;;;;-0.87;100.00;100151.50;5107650;28;20544;-81
2021/12/09 05:17:13;;;;;;;;;;;;;;;-0.91;100.00;100136.06;5108530;28;20502;-80
2021/12/09 05:19:39;;;;;;;94.05;36.40;;;;;;;-1.00;100.00;100131.47;5090923;28;19949;-80
2021/12/09 05:22:05;;;;;;;86.68;31.45;;;;;;;-1.08;100.00;100137.19;5107837;28;20039;-80
2021/12/09 05:24:34;;;;;;;86.50;31.30;;;;;;;-1.10;100.00;100147.78;5108974;28;20175;-80
2021/12/09 05:27:00;;;;;;;91.43;31.25;;;;;;;-0.96;100.00;100170.44;5107858;28;20065;-81
2021/12/09 05:29:32;;;;;;;89.60;32.53;;;;;;;-1.09;100.00;100151.25;5108473;28;20039;-80
2021/12/09 05:32:13;;;;;;;90.30;30.67;;;;;;;-1.02;100.00;100163.00;5107710;28;20028;-80
2021/12/09 05:34:45;;;;;;;90.13;32.95;;;;;;;-1.13;100.00;100141.91;5107155;28;20039;-80
2021/12/09 05:37:19;;;;;;;92.45;32.17;;;;;;;-1.13;100.00;100147.16;5090911;28;20032;-81
2021/12/09 05:39:46;;;;;;;96.93;34.58;;;;;;;-1.02;100.00;100176.09;5090162;28;20038;-81
2021/12/09 05:42:13;;;;;;;101.38;34.47;;;;;;;-0.99;100.00;100181.13;5090729;28;20045;-80
2021/12/09 05:44:40;;;;;;;93.28;35.60;;;;;;;-0.96;100.00;100186.19;5107334;28;20112;-80
2021/12/09 05:47:07;;;;;;;89.13;33.55;;;;;;;-1.02;100.00;100163.00;5108855;28;20106;-80
2021/12/09 05:49:38;;;;;;;93.85;35.90;;;;;;;-1.10;100.00;100146.94;5110787;28;20035;-81
2021/12/09 05:52:05;;;;;;;93.00;35.50;;;;;;;-1.30;100.00;100117.66;5107827;28;20032;-81
2021/12/09 05:54:30;;;;;;;99.70;34.58;;;;;;;-1.23;100.00;100135.59;5106594;28;20031;-80
2021/12/09 05:56:56;;;;;;;101.07;38.50;;;;;;;-1.22;100.00;100143.34;5107529;28;20046;-80
2021/12/09 05:59:22;;;;;;;86.03;31.25;;;;;;;-1.22;100.00;100156.44;5089829;28;20039;-81
2021/12/09 06:01:48;;;;;;;96.40;33.63;;;;;;;-1.34;100.00;100133.69;5107520;28;20404;-81
2021/12/09 06:04:13;;;;;;;101.65;35.33;;;;;;;-1.28;100.00;100155.09;5090040;28;20073;-80
2021/12/09 06:06:40;;;;;;;110.07;35.22;;;;;;;-1.27;100.00;100169.00;5107317;28;20027;-80
2021/12/09 06:09:06;;;;;;;106.22;36.60;;;;;;;-1.24;100.00;100171.44;5109036;28;20034;-81
2021/12/09 06:11:32;;;;;;;103.82;35.85;;;;;;;-1.24;100.00;100171.44;5111185;28;20028;-80
2021/12/09 06:13:57;;;;;;;97.07;36.90;;;;;;;-1.25;100.00;100188.09;5111009;28;20100;-81
2021/12/09 06:16:24;;;;;;;104.63;37.97;;;;;;;-1.10;100.00;100202.81;5111915;28;20088;-81
2021/12/09 06:18:51;;;;;;;107.32;39.00;;;;;;;-1.23;100.00;100198.47;5111452;28;20126;-81
2021/12/09 06:21:18;;;;;;;114.20;37.28;;;;;;;-1.25;100.00;100184.63;5110738;28;20469;-81
2021/12/09 06:23:44;;;;;;;105.28;35.78;;;;;;;-1.13;100.00;100210.03;5110540;28;20137;-80
2021/12/09 06:26:09;;;;;;;104.05;36.35;;;;;;;-1.25;100.00;100201.19;5110918;28;20127;-81
2021/12/09 06:28:36;;;;;;;105.93;38.85;;;;;;;-1.30;100.00;100206.72;5110711;28;20364;-80
2021/12/09 06:31:01;;;;;;;101.47;38.83;;;;;;;-1.34;100.00;100207.84;5110932;28;20054;-81
2021/12/09 06:33:27;;;;;;;102.03;36.92;;;;;;;-1.34;100.00;100204.41;5110470;28;20040;-80
2021/12/09 06:35:52;;;;;;;99.00;38.88;;;;;;;-1.25;100.00;100205.59;5110394;28;20034;-81
2021/12/09 06:38:18;;;;;;;106.63;38.25;;;;;;;-1.34;100.00;100212.25;5110479;28;20483;-81
2021/12/09 06:40:44;;;;;;;107.25;40.70;;;;;;;-1.40;100.00;100217.91;5110581;28;20407;-80
2021/12/09 06:43:11;;;;;;;106.53;36.97;;;;;;;-1.38;100.00;100195.06;5110547;28;20032;-80
2021/12/09 06:45:37;;;;;;;104.28;36.90;;;;;;;-1.34;100.00;100202.63;5110169;28;20043;-80
2021/12/09 06:48:02;;;;;;;104.47;35.60;;;;;;;-1.46;100.00;100213.06;5109965;28;20034;-80
2021/12/09 06:50:29;;;;;;;105.68;36.03;;;;;;;-1.48;100.00;100223.63;5111030;28;20039;-81
2021/12/09 06:52:54;;;;;;;109.35;37.97;;;;;;;-1.43;100.00;100239.03;5111160;28;20100;-80
2021/12/09 06:55:21;;;;;;;104.18;35.95;;;;;;;-1.48;100.00;100241.94;5093232;28;20027;-80
2021/12/09 06:57:47;;;;;;;102.53;35.28;;;;;;;-1.45;100.00;100246.13;5110338;28;20047;-80
2021/12/09 07:00:20;;;;;;;113.55;40.53;;;;;;;-1.40;100.00;100244.94;5110255;28;20042;-80
2021/12/09 07:02:46;;;;;;;113.45;38.25;;;;;;;-1.53;100.00;100212.59;5110067;28;20043;-82
2021/12/09 07:05:14;;;;;;;94.57;35.55;;;;;;;-1.49;100.00;100217.53;5109649;28;20034;-80
2021/12/09 07:07:40;;;;;;;111.15;39.75;;;;;;;-1.51;100.00;100224.66;5109976;28;20027;-80
2021/12/09 07:10:07;;;;;;;105.28;34.25;;;;;;;-1.38;100.00;100248.28;5092795;28;20621;-81
2021/12/09 07:12:35;;;;;;;107.55;41.38;;;;;;;-1.49;100.00;100251.59;5092817;28;20043;-80
2021/12/09 07:15:01;;;;;;;106.20;38.38;;;;;;;-1.53;100.00;100263.19;5109417;28;20027;-81
2021/12/09 07:17:27;;;;;;;113.80;37.30;;;;;;;-1.46;100.00;100268.88;5109724;28;20035;-80
2021/12/09 07:19:52;;;;;;;95.97;36.80;;;;;;;-1.46;100.00;100260.19;5109295;28;20035;-80
2021/12/09 07:22:18;;;;;;;115.47;41.90;;;;;;;-1.54;100.00;100256.28;5109796;28;20296;-80
2021/12/09 07:24:43;;;;;;;103.43;36.10;;;;;;;-1.52;100.00;100267.50;5110279;28;20023;-81
2021/12/09 07:27:09;;;;;;;113.90;37.83;;;;;;;-1.59;100.00;100262.72;5109669;28;20078;-80
2021/12/09 07:29:34;;;;;;;99.72;36.60;;;;;;;-1.41;100.00;100290.38;5109672;28;20030;-80
2021/12/09 07:32:00;;;;;;;107.00;38.08;;;;;;;-1.46;100.00;100292.44;5109241;28;20039;-80
2021/12/09 07:34:25;;;;;;;110.32;37.17;;;;;;;-1.42;100.00;100277.41;5110257;28;20356;-81
2021/12/09 07:36:50;;;;;;;99.32;35.70;;;;;;;-1.52;100.00;100236.06;5109581;28;20035;-80
2021/12/09 07:39:16;;;;;;;94.57;35.65;;;;;;;-1.42;100.00;100245.97;5108104;28;20027;-80
2021/12/09 07:41:42;;;;;;;102.82;35.00;;;;;;;-1.49;100.00;100240.28;5108539;28;20050;-80
2021/12/09 07:44:08;;;;;;;102.57;38.97;;;;;;;-1.52;100.00;100243.09;5109203;28;20487;-81
2021/12/09 07:46:35;;;;;;;102.75;36.53;;;;;;;-1.44;100.00;100251.28;5109477;28;20059;-81
2021/12/09 07:49:00;;;;;;;97.80;35.85;;;;;;;-1.41;100.00;100263.34;5109761;28;20049;-80
2021/12/09 07:51:26;;;;;;;99.53;36.40;;;;;;;-1.45;100.00;100241.78;5108909;28;20031;-80
2021/12/09 07:53:52;;;;;;;102.40;35.90;;;;;;;-1.45;100.00;100252.25;5108228;28;20096;-81
2021/12/09 07:56:18;;;;;;;98.65;35.22;;;;;;;-1.46;100.00;100254.94;5109495;28;20300;-81
2021/12/09 07:58:43;;;;;;;107.18;36.50;;;;;;;-1.49;100.00;100248.97;5109544;28;20073;-80
2021/12/09 08:01:09;;;;;;;99.15;34.70;;;;;;;-1.59;100.00;100226.06;5108600;28;20120;-80
2021/12/09 08:03:35;;;;;;;99.93;35.92;;;;;;;-1.50;100.00;100255.16;5108158;28;20038;-80
2021/12/09 08:06:00;;;;;;;107.78;36.88;;;;;;;-1.57;100.00;100247.75;5108133;28;20070;-81
2021/12/09 08:08:26;;;;;;;102.63;39.10;;;;;;;-1.58;100.00;100246.09;5107879;28;20050;-80
2021/12/09 08:10:51;;;;;;;97.80;36.42;;;;;;;-1.59;100.00;100252.25;5109574;28;20473;-80
2021/12/09 08:13:17;;;;;;;101.65;35.15;;;;;;;-1.54;100.00;100273.78;5108586;28;20042;-80
2021/12/09 08:15:50;;;;;;;106.35;40.35;;;;;;;-1.44;100.00;100294.97;5108014;28;20066;-81
2021/12/09 08:18:27;;;;;;;114.85;39.63;;;;;;;-1.49;100.00;100283.00;5108417;28;20138;-81
2021/12/09 08:20:59;;;;;;;94.28;36.35;;;;;;;-1.59;100.00;100286.28;5107625;28;20049;-81
2021/12/09 08:23:25;;;;;;;106.03;37.53;;;;;;;-1.63;100.00;100295.28;5108409;28;20092;-80
2021/12/09 08:25:51;;;;;;;108.65;36.83;;;;;;;-1.60;100.00;100289.84;5091099;28;20031;-80
2021/12/09 08:28:17;;;;;;;100.57;37.40;;;;;;;-1.66;100.00;100291.09;5106453;28;20462;-81
2021/12/09 08:30:43;;;;;;;120.03;36.65;;;;;;;-1.68;100.00;100294.75;5088900;28;20026;-80
2021/12/09 08:33:09;;;;;;;107.65;35.30;;;;;;;-1.73;100.00;100295.84;5091023;28;20040;-80
2021/12/09 08:35:36;;;;;;;109.57;39.17;;;;;;;-1.70;100.00;100300.06;5107091;28;20357;-81
2021/12/09 08:38:06;;;;;;;107.10;38.10;;;;;;;-1.66;100.00;100308.53;5109262;28;20074;-81
2021/12/09 08:40:32;;;;;;;98.93;33.67;;;;;;;-1.62;100.00;100310.03;5108467;28;20059;-81
2021/12/09 08:42:58;;;;;;;110.88;37.92;;;;;;;-1.58;100.00;100309.75;5107729;28;20047;-81
2021/12/09 08:45:25;;;;;;;109.43;39.92;;;;;;;-1.53;100.00;100318.16;5108115;28;20062;-80
2021/12/09 08:47:51;;;;;;;114.75;38.60;;;;;;;-1.63;100.00;100290.06;5109295;28;20063;-79
2021/12/09 08:50:20;;;;;;;117.38;39.60;;;;;;;-1.63;100.00;100285.66;5109164;28;20416;-81
2021/12/09 08:52:48;;;;;;;108.53;37.63;;;;;;;-1.71;100.00;100282.66;5091121;28;20055;-81
2021/12/09 08:55:14;;;;;;;105.53;37.05;;;;;;;-1.69;100.00;100288.63;5108457;28;20326;-81
2021/12/09 08:57:39;;;;;;;;;;;;;;;-1.56;100.00;100304.44;5108084;28;20039;-80
2021/12/09 09:00:11;;;;;;;97.18;35.50;;;;;;;-1.48;100.00;100304.78;5107815;28;19953;-82
2021/12/09 09:02:39;;;;;;;108.00;35.55;;;;;;;-1.46;100.00;100305.53;5091132;28;20039;-81
2021/12/09 09:05:08;;;;;;;98.93;36.92;;;;;;;-1.58;100.00;100272.28;5108294;28;20417;-81
2021/12/09 09:07:33;;;;;;;103.78;37.25;;;;;;;-1.60;100.00;100271.53;5103704;28;20039;-80
2021/12/09 09:09:59;;;;;;;95.72;34.78;;;;;;;-1.61;100.00;100268.06;5083862;28;20096;-81
2021/12/09 09:12:24;;;;;;;99.38;36.53;;;;;;;-1.47;100.00;100282.09;5102442;28;20422;-81
2021/12/09 09:14:50;;;;;;;104.95;37.22;;;;;;;-1.66;100.00;100248.34;5094339;28;20036;-81
2021/12/09 09:17:15;;;;;;;94.03;36.03;;;;;;;-1.49;100.00;100271.69;5101119;28;20042;-81
2021/12/09 09:19:41;;;;;;;97.28;36.85;;;;;;;-1.47;100.00;100269.00;5108286;28;20631;-81
2021/12/09 09:22:06;;;;;;;92.10;33.17;;;;;;;-1.51;100.00;100263.09;5109479;28;20039;-81
2021/12/09 09:24:33;;;;;;;92.63;35.38;;;;;;;-1.34;100.00;100281.19;5109847;28;20057;-81
2021/12/09 09:26:58;;;;;;;;;;;;;;;-1.34;100.00;100289.03;5110118;28;20096;-81
2021/12/09 09:29:25;;;;;;;102.68;36.28;;;;;;;-1.57;100.00;100259.09;5109588;28;20329;-80
2021/12/09 09:31:51;;;;;;;101.28;38.00;;;;;;;-1.59;100.00;100250.50;5109474;28;20031;-81
2021/12/09 09:34:17;;;;;;;104.32;36.63;;;;;;;-1.52;100.00;100266.66;5109291;28;20049;-80
2021/12/09 09:36:44;;;;;;;92.18;34.28;;;;;;;-1.53;100.00;100264.97;5110591;28;20028;-80
2021/12/09 09:39:17;;;;;;;103.55;39.83;;;;;;;-1.51;100.00;100263.94;5109362;28;20089;-80
2021/12/09 09:41:59;;;;;;;103.00;36.42;;;;;;;-1.45;100.00;100273.19;5108988;28;20027;-80
2021/12/09 09:44:32;;;;;;;105.43;38.75;;;;;;;-1.47;100.00;100264.59;5093205;28;20032;-81
2021/12/09 09:47:00;;;;;;;95.72;35.58;;;;;;;-1.56;100.00;100249.47;5112901;28;20166;-79
2021/12/09 09:49:27;;;;;;;101.82;36.75;;;;;;;-1.53;100.00;100249.25;5112399;28;20062;-81
2021/12/09 09:51:56;;;;;;;112.60;37.83;;;;;;;-1.45;100.00;100251.38;5113664;28;20118;-80
2021/12/09 09:54:21;;;;;;;105.35;35.38;;;;;;;-1.53;100.00;100238.78;5112509;28;20051;-80
2021/12/09 09:56:48;;;;;;;95.80;36.80;;;;;;;-1.57;100.00;100225.06;5116424;28;20031;-81
2021/12/09 09:59:17;;;;;;;89.03;35.13;;;;;;;-1.59;100.00;100224.31;5113227;28;20069;-80
2021/12/09 10:01:45;;;;;;;101.00;33.83;;;;;;;-1.41;100.00;100239.78;5112784;28;20054;-80
2021/12/09 10:04:20;;;;;;;115.07;38.03;;;;;;;-1.44;100.00;100217.25;5111756;28;20040;-79
2021/12/09 10:06:46;;;;;;;112.18;38.05;;;;;;;-1.56;100.00;100197.09;5112419;28;20041;-79
2021/12/09 10:09:14;;;;;;;105.70;35.47;;;;;;;-1.59;100.00;100198.13;5112243;28;20027;-80
2021/12/09 10:11:40;;;;;;;108.10;36.55;;;;;;;-1.62;100.00;100190.47;5112373;28;20448;-80
2021/12/09 10:14:10;;;;;;;;;;;;;;;-1.46;100.00;100215.69;5095427;28;20041;-79
2021/12/09 10:16:38;;;;;;;112.38;35.47;;;;;;;-1.59;100.00;100202.50;5113136;28;19941;-79
2021/12/09 10:19:15;;;;;;;99.85;36.90;;;;;;;-1.51;100.00;100215.97;5112374;28;20066;-80
2021/12/09 10:21:41;;;;;;;104.65;36.90;;;;;;;-1.50;100.00;100212.41;5112479;28;20043;-80
2021/12/09 10:24:08;;;;;;;104.05;35.30;;;;;;;-1.57;100.00;100203.25;5112855;28;20039;-80
2021/12/09 10:26:40;;;;;;;111.50;36.83;;;;;;;-1.68;100.00;100201.34;5113266;28;20062;-81
2021/12/09 10:29:25;;;;;;;98.20;35.42;;;;;;;-1.55;100.00;100209.25;5113101;28;20039;-81
2021/12/09 10:31:59;;;;;;;100.32;34.90;;;;;;;-1.49;100.00;100220.16;5111848;28;20093;-79
2021/12/09 10:34:34;;;;;;;121.40;42.15;;;;;;;-1.58;100.00;100199.81;5111583;28;20096;-80
2021/12/09 10:37:22;;;;;;;102.73;36.17;;;;;;;-1.61;100.00;100204.41;5111841;28;20052;-80
2021/12/09 10:39:58;;;;;;;111.88;38.13;;;;;;;-1.56;100.00;100223.28;5111323;28;20092;-81
2021/12/09 10:42:26;;;;;;;108.20;37.13;;;;;;;-1.53;100.00;100221.28;5111350;28;20437;-80
2021/12/09 10:45:05;;;;;;;109.40;36.42;;;;;;;-1.53;100.00;100218.66;5111227;28;20089;-79
2021/12/09 10:47:49;;;;;;;102.47;33.97;;;;;;;-1.46;100.00;100229.59;5112301;28;20027;-79
2021/12/09 10:50:48;;;;;;;109.27;35.60;;;;;;;-1.51;100.00;100215.97;5094398;28;20061;-80
2021/12/09 10:56:09;;;;;;;101.03;36.35;;;;;;;-1.59;100.00;100213.84;5111412;28;20043;-79
2021/12/09 10:58:39;;;;;;;96.47;37.97;;;;;;;-1.56;100.00;100200.56;5111226;28;20036;-79
2021/12/09 11:01:14;;;;;;;105.60;38.10;;;;;;;-1.41;100.00;100219.66;5112156;28;20034;-80
2021/12/09 11:03:54;;;;;;;103.13;35.05;;;;;;;-1.51;100.00;100195.84;5094157;28;20039;-79
2021/12/09 11:06:22;;;;;;;105.40;36.42;;;;;;;-1.45;100.00;100207.72;5111386;28;20031;-80
2021/12/09 11:08:50;;;;;;;103.97;36.65;;;;;;;-1.40;100.00;100205.66;5111143;28;20038;-81